Aeroporto :
LOGIN :

Iscrizione | Disclaimer

   EN    FR    IT 

 










Sommario :    VFR   VFR Marginale   IFR   IFR Intensivo   IFR Molto Intensivo
Visibilità : 
Base nubi : 
>= 8 km
>= 3000ft
5 / 8 km
1000 / 3000 ft
1500m / 5 km
500 / 1000 ft
800 / 1500m
200 / 500 ft
< 800m
< 200 ft
Simboli :   Temporali  Nebbia  Neve Forte  Precipitazioni Forti  Vento > 20 kt
SIGMETs :   Varie  Temporali  Ghiacco  Turbolenza  Onda orograficha  Ceneri Vulcaniche







- Altitudine del aeroporto : 1 ft
- Carte del aeroporto


EGCK - Caernarfon

ULTIMO METAR :
  • 130050Z AUTO 13014G25KT 080V200 9999 NCD 06/M01 Q1010

METARs OBSOLETI :
  • 130020Z AUTO 11008KT 040V200 9999 NCD 06/M01 Q1010
  • 122350Z AUTO VRB09G22KT 9999 NCD 06/M01 Q1011
  • 122320Z AUTO 12009KT 030V160 9999 NCD 06/M00 Q1011
  • 122250Z AUTO 12014G25KT 080V150 9999 FEW031/// 06/00 Q1011
  • 122220Z AUTO 14011G23KT 090V180 9999 NCD 06/01 Q1012

TAF TAF EGCK
Valido dal 13 a 00 ore il 13 a 09 ore UTC


122259Z 1300/1309 13013KT 9999 SCT030
TEMPO 1300/1309 13018G30KT
Nessun NOTAM noto per questo aeroporto.
1 SIGMET conosciuto per la FIR London (EGTT) :
 
Turbolenza severa
EGTT SIGMET 01 VALID 122330/130330 EGRR
EGTT LONDON FIR SEV TURB FCST W OF LINE N5500 W00400 - N4923 W00510 SFC/FL060 STNR NC=



MetMap, La meteo Aeronautica in un colpo d'occhio ! - Copyright ORBIFLY Dicembre 2007 - Disclaimer

ORBIFLY MET'MAP TEAM :

Programmazione e sviluppo : Alexandra Zaïnal
Concezione e sviluppo : Baudouin d'Aumeries
Co-Programmazione e sviluppo : Marc-Olivier Méhu
Supporto tecnico e logistico : Manuel Goepfert
Aiuto per la traduzione : Arnaldo La Scala

Contatto : metmap@orbifly.com




FONTI E CREDITI :

   NOAA